createdAt,value
2022-10-29T00:04:12.690Z,4.07
2022-10-29T00:08:14.363Z,4.00
2022-10-29T00:12:16.217Z,4.10
2022-10-29T00:16:21.103Z,4.20
2022-10-29T00:20:26.899Z,4.80
2022-10-29T00:24:28.584Z,4.13
2022-10-29T00:28:30.915Z,4.73
2022-10-29T00:32:32.974Z,5.07
2022-10-29T00:36:34.725Z,5.10
2022-10-29T00:40:37.821Z,5.10
2022-10-29T00:44:40.684Z,4.35
2022-10-29T00:48:52.067Z,4.57
2022-10-29T00:52:54.229Z,4.63
2022-10-29T00:57:03.376Z,4.77
2022-10-29T01:01:07.532Z,4.73
2022-10-29T01:05:11.013Z,3.83
2022-10-29T01:09:12.927Z,3.47
2022-10-29T01:13:20.435Z,3.88
2022-10-29T01:17:33.320Z,4.40
2022-10-29T01:21:47.027Z,4.83
2022-10-29T01:26:03.816Z,4.67
2022-10-29T01:30:21.008Z,5.73
2022-10-29T01:34:35.850Z,5.13
2022-10-29T01:39:06.490Z,6.10
2022-10-29T01:43:25.654Z,6.15
2022-10-29T01:47:31.946Z,6.57
2022-10-29T01:51:36.390Z,6.70
2022-10-29T01:55:38.344Z,6.73
2022-10-29T01:59:55.027Z,5.87
2022-10-29T02:04:19.861Z,5.87
2022-10-29T02:09:01.988Z,6.70
2022-10-29T02:13:04.090Z,4.87
2022-10-29T02:17:07.413Z,4.93
2022-10-29T02:21:09.174Z,4.40
2022-10-29T02:25:11.295Z,3.87
2022-10-29T02:29:13.013Z,3.70
2022-10-29T02:33:14.731Z,3.70
2022-10-29T02:37:16.588Z,4.13
2022-10-29T02:41:24.367Z,3.60
2022-10-29T02:45:26.163Z,3.80
2022-10-29T02:49:28.088Z,4.15
2022-10-29T02:53:29.792Z,4.30
2022-10-29T02:57:31.515Z,3.77
2022-10-29T03:01:33.443Z,4.13
2022-10-29T03:05:37.651Z,4.53
2022-10-29T03:09:39.408Z,4.32
2022-10-29T03:13:41.226Z,4.60
2022-10-29T03:17:43.108Z,4.60
2022-10-29T03:21:44.793Z,4.37
2022-10-29T03:25:55.869Z,4.63
2022-10-29T03:29:58.048Z,4.10
2022-10-29T03:33:59.783Z,4.47
2022-10-29T03:38:01.487Z,4.27
2022-10-29T03:42:04.013Z,4.33
2022-10-29T03:46:06.695Z,4.00
2022-10-29T03:50:09.074Z,4.17
2022-10-29T03:54:10.772Z,3.30
2022-10-29T03:58:12.522Z,4.05
2022-10-29T04:02:14.573Z,4.07
2022-10-29T04:06:16.500Z,4.60
2022-10-29T04:10:18.292Z,3.33
2022-10-29T04:14:19.949Z,4.00
2022-10-29T04:18:28.022Z,3.67
2022-10-29T04:31:13.765Z,4.55
2022-10-29T04:35:16.015Z,4.20
2022-10-29T04:39:22.626Z,4.30
2022-10-29T04:43:26.294Z,4.07
2022-10-29T04:47:29.513Z,4.03
2022-10-29T04:51:31.241Z,4.13
2022-10-29T04:55:36.574Z,3.83
2022-10-29T04:59:38.438Z,3.77
2022-10-29T05:03:40.120Z,3.97
2022-10-29T05:07:42.013Z,3.90
2022-10-29T05:11:43.756Z,4.13
2022-10-29T05:15:53.337Z,4.30
2022-10-29T05:19:55.430Z,4.47
2022-10-29T05:23:57.311Z,4.53
2022-10-29T05:28:03.499Z,4.53
2022-10-29T05:32:05.422Z,3.85
2022-10-29T05:36:07.378Z,4.38
2022-10-29T05:40:10.038Z,4.40
2022-10-29T05:44:11.909Z,4.30
2022-10-29T05:48:16.097Z,4.00
2022-10-29T05:52:17.800Z,4.03
2022-10-29T05:56:19.506Z,4.27
2022-10-29T06:00:21.260Z,4.43
2022-10-29T06:04:22.961Z,4.13
2022-10-29T06:08:24.889Z,4.50
2022-10-29T06:12:29.979Z,5.10
2022-10-29T06:16:32.816Z,5.22
2022-10-29T06:20:34.511Z,6.10
2022-10-29T06:24:36.174Z,5.60
2022-10-29T06:28:37.976Z,5.47
2022-10-29T06:32:39.729Z,5.03
2022-10-29T06:36:44.457Z,5.17
2022-10-29T06:40:55.604Z,4.78
2022-10-29T06:44:57.351Z,5.87
2022-10-29T06:48:59.262Z,5.60
2022-10-29T06:53:06.153Z,4.93
2022-10-29T06:57:07.897Z,4.95
2022-10-29T07:01:09.689Z,5.40
2022-10-29T07:05:11.445Z,4.85
2022-10-29T07:09:13.177Z,5.40
2022-10-29T07:13:14.949Z,7.43
2022-10-29T07:17:16.687Z,5.80
2022-10-29T07:21:18.374Z,5.40
2022-10-29T07:25:20.487Z,6.20
2022-10-29T07:29:22.206Z,6.50
2022-10-29T07:33:24.015Z,8.40
2022-10-29T07:37:25.961Z,7.32
2022-10-29T07:41:27.708Z,7.40
2022-10-29T07:45:29.427Z,7.13
2022-10-29T07:49:31.317Z,7.77
2022-10-29T07:53:33.279Z,6.87
2022-10-29T07:57:35.014Z,6.63
2022-10-29T08:01:36.728Z,7.45
2022-10-29T08:05:39.118Z,7.13
2022-10-29T08:09:40.857Z,6.10
2022-10-29T08:13:42.627Z,5.50
2022-10-29T08:17:44.636Z,6.63
2022-10-29T08:21:46.979Z,6.90
2022-10-29T08:25:49.061Z,7.00
2022-10-29T08:29:50.805Z,6.77
2022-10-29T08:33:52.472Z,8.60
2022-10-29T08:37:55.640Z,7.83
2022-10-29T08:42:10.528Z,9.15
2022-10-29T08:46:30.938Z,10.45
2022-10-29T08:50:42.667Z,10.75
2022-10-29T08:54:47.897Z,13.13
2022-10-29T08:59:01.993Z,10.97
2022-10-29T09:03:11.063Z,10.77
2022-10-29T09:07:28.686Z,11.40
2022-10-29T09:11:42.630Z,12.43
2022-10-29T09:15:57.257Z,10.25
2022-10-29T09:20:07.650Z,10.32
2022-10-29T09:24:35.111Z,10.10
2022-10-29T09:28:45.868Z,10.75
2022-10-29T09:32:53.382Z,10.57
2022-10-29T09:36:56.262Z,10.48
2022-10-29T09:41:04.113Z,10.52
2022-10-29T09:45:10.648Z,10.63
2022-10-29T09:49:25.576Z,11.48
2022-10-29T09:53:27.392Z,11.82
2022-10-29T09:57:32.008Z,10.50
2022-10-29T10:01:33.928Z,10.30
2022-10-29T10:05:37.136Z,11.07
2022-10-29T10:10:00.387Z,9.65
2022-10-29T10:14:17.875Z,11.45
2022-10-29T10:18:33.602Z,11.20
2022-10-29T10:22:46.824Z,9.40
2022-10-29T10:26:48.529Z,10.00
2022-10-29T10:31:08.366Z,10.52
2022-10-29T10:35:30.295Z,10.02
2022-10-29T10:43:54.797Z,10.40
2022-10-29T10:48:02.985Z,10.15
2022-10-29T10:52:14.364Z,10.50
2022-10-29T10:56:22.582Z,10.43
2022-10-29T11:00:35.857Z,10.13
2022-10-29T11:04:41.277Z,11.15
2022-10-29T11:09:21.929Z,10.65
2022-10-29T11:13:28.063Z,10.10
2022-10-29T11:17:53.739Z,10.48
2022-10-29T11:22:12.913Z,10.25
2022-10-29T11:26:20.179Z,9.80
2022-10-29T11:30:22.191Z,10.60
2022-10-29T11:34:46.061Z,9.98
2022-10-29T11:39:25.697Z,8.77
2022-10-29T11:43:34.027Z,9.60
2022-10-29T11:47:42.832Z,9.18
2022-10-29T11:52:14.704Z,9.15
2022-10-29T11:56:31.341Z,9.23
2022-10-29T12:01:04.735Z,8.48
2022-10-29T12:05:22.585Z,9.05
2022-10-29T12:09:55.926Z,7.95
2022-10-29T12:14:00.325Z,8.60
2022-10-29T12:18:28.981Z,8.75
2022-10-29T12:22:51.769Z,8.85
2022-10-29T12:26:59.112Z,8.77
2022-10-29T12:31:08.546Z,8.50
2022-10-29T12:35:17.597Z,8.43
2022-10-29T12:39:31.238Z,7.53
2022-10-29T12:43:36.208Z,8.80
2022-10-29T12:48:00.697Z,8.45
2022-10-29T12:52:18.506Z,7.28
2022-10-29T12:56:20.832Z,7.88
2022-10-29T13:00:33.816Z,7.20
2022-10-29T13:04:35.559Z,7.25
2022-10-29T13:08:38.923Z,6.50
2022-10-29T13:13:13.037Z,6.65
2022-10-29T13:17:34.308Z,6.63
2022-10-29T13:21:58.776Z,5.78
2022-10-29T13:26:02.153Z,5.93
2022-10-29T13:30:17.556Z,6.20
2022-10-29T13:34:57.960Z,5.57
2022-10-29T13:39:06.833Z,5.07
2022-10-29T13:43:15.339Z,5.25
2022-10-29T13:47:22.549Z,5.55
2022-10-29T13:51:31.596Z,6.13
2022-10-29T13:55:33.760Z,5.40
2022-10-29T13:59:47.404Z,5.55
2022-10-29T14:04:06.997Z,5.30
2022-10-29T14:08:11.521Z,4.90
2022-10-29T14:12:20.136Z,5.55
2022-10-29T14:16:29.455Z,5.40
2022-10-29T14:20:31.259Z,5.78
2022-10-29T14:24:38.552Z,5.80
2022-10-29T14:28:40.280Z,5.80
2022-10-29T14:32:42.137Z,6.47
2022-10-29T14:36:48.556Z,7.88
2022-10-29T14:46:30.430Z,6.55
2022-10-29T14:50:32.222Z,6.68
2022-10-29T14:54:37.990Z,5.65
2022-10-29T14:58:41.831Z,6.55
2022-10-29T15:02:43.867Z,6.40
2022-10-29T15:06:45.844Z,6.45
2022-10-29T15:10:53.685Z,6.90
2022-10-29T15:14:55.428Z,7.35
2022-10-29T15:18:58.534Z,6.85
2022-10-29T15:23:01.158Z,6.60
2022-10-29T15:27:06.542Z,6.00
2022-10-29T15:31:20.156Z,6.00
2022-10-29T15:35:24.938Z,6.45
2022-10-29T15:39:56.562Z,7.32
2022-10-29T15:43:59.352Z,7.55
2022-10-29T15:48:09.861Z,7.00
2022-10-29T15:52:17.721Z,7.20
2022-10-29T15:56:19.619Z,7.35
2022-10-29T16:00:24.366Z,7.15
2022-10-29T16:04:26.064Z,8.02
2022-10-29T16:08:37.440Z,8.50
2022-10-29T16:12:39.187Z,8.68
2022-10-29T16:16:41.155Z,8.77
2022-10-29T16:22:27.707Z,7.65
2022-10-29T16:25:35.138Z,6.82
2022-10-29T16:29:36.849Z,6.03
2022-10-29T16:33:38.583Z,5.95
2022-10-29T16:37:40.357Z,4.85
2022-10-29T16:41:42.119Z,5.40
2022-10-29T16:45:45.424Z,6.03
2022-10-29T16:49:48.220Z,5.45
2022-10-29T16:53:49.895Z,6.53
2022-10-29T16:57:51.621Z,6.82
2022-10-29T17:01:53.338Z,6.90
2022-10-29T17:05:55.045Z,7.20
2022-10-29T17:09:56.843Z,6.68
2022-10-29T17:13:58.677Z,8.07
2022-10-29T17:18:01.764Z,8.40
2022-10-29T17:22:05.192Z,8.32
2022-10-29T17:26:09.507Z,8.65
2022-10-29T17:30:11.712Z,8.95
2022-10-29T17:34:13.513Z,63.15
2022-10-29T17:38:17.766Z,32.25
2022-10-29T17:42:19.626Z,43.28
2022-10-29T17:46:23.696Z,37.80
2022-10-29T17:50:25.786Z,22.02
2022-10-29T17:54:28.086Z,16.65
2022-10-29T17:58:36.062Z,12.75
2022-10-29T18:02:38.025Z,7.60
2022-10-29T18:06:39.833Z,8.10
2022-10-29T18:10:41.614Z,6.55
2022-10-29T18:14:43.333Z,6.45
2022-10-29T18:19:00.755Z,8.10
2022-10-29T18:23:03.953Z,6.50
2022-10-29T18:27:05.887Z,6.60
2022-10-29T18:31:07.589Z,7.05
2022-10-29T18:35:12.365Z,8.73
2022-10-29T18:39:16.296Z,7.45
2022-10-29T18:43:17.974Z,6.20
2022-10-29T18:47:22.573Z,5.93
2022-10-29T18:51:30.630Z,6.13
2022-10-29T18:55:32.557Z,6.40
2022-10-29T18:59:34.496Z,6.50
2022-10-29T19:03:39.323Z,5.70
2022-10-29T19:07:41.282Z,5.40
2022-10-29T19:11:42.998Z,5.43
2022-10-29T19:15:44.686Z,4.95
2022-10-29T19:19:50.259Z,5.03
2022-10-29T19:24:00.261Z,5.15
2022-10-29T19:28:03.132Z,5.13
2022-10-29T19:32:05.100Z,6.07
2022-10-29T19:36:08.808Z,5.57
2022-10-29T19:40:11.058Z,5.93
2022-10-29T19:44:12.721Z,4.10
2022-10-29T19:48:14.573Z,3.97
2022-10-29T19:52:16.307Z,3.95
2022-10-29T19:56:20.045Z,3.95
2022-10-29T20:00:23.641Z,4.00
2022-10-29T20:04:25.369Z,5.07
2022-10-29T20:08:27.497Z,4.20
2022-10-29T20:12:29.413Z,4.07
2022-10-29T20:16:31.176Z,3.80
2022-10-29T20:20:32.982Z,4.80
2022-10-29T20:24:34.766Z,6.03
2022-10-29T20:28:36.805Z,5.20
2022-10-29T20:32:39.160Z,4.53
2022-10-29T20:36:44.179Z,4.85
2022-10-29T20:41:42.802Z,5.82
2022-10-29T20:45:48.535Z,6.60
2022-10-29T20:49:50.265Z,36.10
2022-10-29T20:53:52.534Z,27.50
2022-10-29T20:57:54.394Z,14.85
2022-10-29T21:01:58.511Z,10.45
2022-10-29T21:06:15.612Z,8.02
2022-10-29T21:10:19.637Z,7.30
2022-10-29T21:14:31.260Z,7.28
2022-10-29T21:18:44.000Z,8.10
2022-10-29T21:22:53.121Z,7.70
2022-10-29T21:26:54.977Z,8.13
2022-10-29T21:30:57.957Z,8.57
2022-10-29T21:34:59.639Z,7.32
2022-10-29T21:39:01.561Z,7.93
2022-10-29T21:43:11.723Z,7.80
2022-10-29T21:47:13.442Z,6.57
2022-10-29T21:51:30.251Z,6.80
2022-10-29T21:55:32.951Z,6.47
2022-10-29T21:59:39.045Z,6.32
2022-10-29T22:03:43.426Z,6.45
2022-10-29T22:07:45.891Z,11.18
2022-10-29T22:11:47.763Z,6.95
2022-10-29T22:15:49.729Z,6.78
2022-10-29T22:19:51.802Z,6.85
2022-10-29T22:23:56.107Z,6.63
2022-10-29T22:27:58.308Z,6.38
2022-10-29T22:32:08.049Z,6.35
2022-10-29T22:36:15.064Z,5.70
2022-10-29T22:40:17.237Z,5.90
2022-10-29T22:44:19.304Z,5.80
2022-10-29T22:48:21.099Z,6.30
2022-10-29T22:52:23.047Z,5.82
2022-10-29T22:56:30.719Z,7.13
2022-10-29T23:00:33.368Z,8.90
2022-10-29T23:04:37.309Z,6.23
2022-10-29T23:08:39.310Z,5.90
2022-10-29T23:12:41.366Z,6.80
2022-10-29T23:16:43.223Z,6.20
2022-10-29T23:20:45.721Z,5.72
2022-10-29T23:24:47.482Z,5.68
2022-10-29T23:28:49.875Z,5.63
2022-10-29T23:32:51.603Z,5.68
2022-10-29T23:41:05.024Z,6.20
2022-10-29T23:45:07.952Z,5.90
2022-10-29T23:49:12.568Z,5.68
2022-10-29T23:53:14.715Z,5.38
2022-10-29T23:57:16.407Z,5.30
